Time;durP1;ratioP1;P1;durP2;ratioP2;P2;SDS_P1;SDS_P2;PMS_P1;PMS_P2;Temp;Humidity;BMP_temperature;BMP_pressure;BME280_temperature;BME280_humidity;BME280_pressure;Samples;Min_cycle;Max_cycle;Signal;HPM_P1;HPM_P2
2023/02/28 00:01:24;;;;;;;25.10;17.40;;;;;;;9.45;100.00;100037.72;5034870;28;20128;-78
2023/02/28 00:03:49;;;;;;;26.00;18.42;;;;;;;9.75;100.00;100097.09;5052572;28;20041;-80
2023/02/28 00:06:15;;;;;;;27.40;18.10;;;;;;;9.52;100.00;100057.03;5034264;28;20033;-82
2023/02/28 00:08:40;;;;;;;30.77;18.20;;;;;;;9.72;100.00;100095.50;5052135;28;20029;-81
2023/02/28 00:11:08;;;;;;;30.85;18.13;;;;;;;9.19;100.00;100028.16;5034506;28;20744;-81
2023/02/28 00:13:46;;;;;;;26.13;16.67;;;;;;;9.30;100.00;100040.63;5052608;28;20052;-80
2023/02/28 00:16:14;;;;;;;29.02;17.75;;;;;;;9.52;100.00;100046.88;5034343;28;20037;-81
2023/02/28 00:18:41;;;;;;;27.30;17.83;;;;;;;9.38;100.00;100026.06;5052133;28;20090;-79
2023/02/28 00:21:07;;;;;;;24.70;17.02;;;;;;;9.72;100.00;100056.59;5051995;28;20029;-79
2023/02/28 00:23:33;;;;;;;27.90;16.90;;;;;;;9.34;100.00;100029.53;5051493;28;20055;-81
2023/02/28 00:25:58;;;;;;;25.02;16.95;;;;;;;9.18;100.00;100000.31;5051530;28;20696;-77
2023/02/28 00:28:24;;;;;;;27.85;17.90;;;;;;;9.51;100.00;100055.34;5034697;28;20029;-80
2023/02/28 00:30:50;;;;;;;30.90;18.30;;;;;;;9.34;100.00;100062.50;5051390;28;20048;-79
2023/02/28 00:33:19;;;;;;;26.50;17.25;;;;;;;9.41;100.00;100043.75;5051719;28;20040;-79
2023/02/28 00:35:48;;;;;;;27.27;17.70;;;;;;;8.96;100.00;99999.09;5051363;28;20448;-80
2023/02/28 00:38:14;;;;;;;27.38;17.73;;;;;;;9.12;100.00;99996.19;5033705;28;20118;-78
2023/02/28 00:40:40;;;;;;;27.83;17.80;;;;;;;9.46;100.00;100014.03;5034158;28;20033;-79
2023/02/28 00:43:05;;;;;;;29.38;17.55;;;;;;;9.33;100.00;100071.00;5051618;28;20040;-79
2023/02/28 00:45:31;;;;;;;25.27;17.45;;;;;;;9.01;100.00;100010.84;5051309;28;20087;-79
2023/02/28 00:47:56;;;;;;;25.65;16.63;;;;;;;8.75;100.00;99986.00;5051664;28;20029;-79
2023/02/28 00:50:22;;;;;;;25.08;16.38;;;;;;;9.31;100.00;100043.13;5051573;28;20106;-81
2023/02/28 00:52:47;;;;;;;26.23;16.13;;;;;;;9.16;100.00;100057.81;5033572;28;20032;-80
2023/02/28 00:55:13;;;;;;;25.88;15.50;;;;;;;8.88;100.00;99963.75;5033950;28;20025;-81
2023/02/28 00:57:38;;;;;;;25.48;16.05;;;;;;;8.75;100.00;99988.53;5052532;28;20419;-79
2023/02/28 01:00:05;;;;;;;25.55;15.95;;;;;;;8.67;100.00;99961.69;5038136;28;20064;-81
2023/02/28 01:02:30;;;;;;;24.63;16.00;;;;;;;9.05;100.00;100024.25;5054598;28;20040;-80
2023/02/28 01:04:56;;;;;;;26.38;16.00;;;;;;;8.60;100.00;99955.91;5037720;28;20480;-80
2023/02/28 01:07:23;;;;;;;25.15;14.98;;;;;;;8.84;100.00;100007.78;5037255;28;20048;-80
2023/02/28 01:09:49;;;;;;;27.63;15.60;;;;;;;8.65;100.00;99948.22;5055034;28;20034;-79
2023/02/28 01:12:15;;;;;;;29.00;16.80;;;;;;;8.83;100.00;99970.66;5051979;28;20036;-80
2023/02/28 01:14:41;;;;;;;25.10;16.35;;;;;;;8.90;100.00;99936.69;5037825;28;20033;-79
2023/02/28 01:17:06;;;;;;;25.27;15.95;;;;;;;8.64;100.00;99846.03;5055666;28;20033;-80
2023/02/28 01:19:32;;;;;;;23.42;16.05;;;;;;;8.77;100.00;99906.56;5055224;28;20052;-80
2023/02/28 01:22:04;;;;;;;23.83;15.73;;;;;;;8.66;100.00;99902.56;5037641;28;20033;-78
2023/02/28 01:24:30;;;;;;;23.92;14.95;;;;;;;8.70;100.00;99894.03;5055441;28;20025;-80
2023/02/28 01:26:55;;;;;;;23.73;15.23;;;;;;;8.79;100.00;99879.50;5037130;28;20047;-79
2023/02/28 01:29:21;;;;;;;22.38;15.18;;;;;;;8.68;100.00;99816.38;5055011;28;20083;-80
2023/02/28 01:31:46;;;;;;;20.95;14.40;;;;;;;8.34;100.00;99806.16;5054923;28;20456;-80
2023/02/28 01:34:12;;;;;;;25.25;14.88;;;;;;;8.57;100.00;99803.13;5054507;28;20040;-80
2023/02/28 01:36:37;;;;;;;22.17;15.02;;;;;;;8.56;100.00;99806.53;5037183;28;20033;-78
2023/02/28 01:39:03;;;;;;;26.20;14.63;;;;;;;8.66;100.00;99846.81;5055563;28;20025;-78
2023/02/28 01:41:31;;;;;;;27.17;15.05;;;;;;;8.27;100.00;99761.59;5055259;28;20025;-78
2023/02/28 01:44:05;;;;;;;25.88;14.63;;;;;;;8.32;100.00;99726.88;5036757;28;20048;-79
2023/02/28 01:46:35;;;;;;;22.17;14.10;;;;;;;8.67;100.00;99794.47;5054722;28;20424;-78
2023/02/28 01:49:12;;;;;;;22.85;14.35;;;;;;;8.70;100.00;99763.97;5052148;28;20510;-78
2023/02/28 01:51:54;;;;;;;21.92;13.82;;;;;;;8.36;100.00;99692.19;5054147;28;20041;-77
2023/02/28 01:54:27;;;;;;;;;;;;;;;8.80;100.00;99734.16;5055516;28;20029;-78
2023/02/28 01:57:15;;;;;;;18.50;12.43;;;;;;;8.31;100.00;99683.84;5054723;28;19991;-78
2023/02/28 01:59:50;;;;;;;22.52;13.30;;;;;;;8.45;100.00;99743.47;5054358;28;20033;-78
2023/02/28 02:02:18;;;;;;;21.70;13.15;;;;;;;8.40;100.00;99684.47;5037229;28;20032;-79
2023/02/28 02:04:58;;;;;;;21.17;12.98;;;;;;;8.61;100.00;99670.44;5036645;28;20044;-78
2023/02/28 02:07:26;;;;;;;20.60;13.30;;;;;;;8.29;100.00;99650.97;5027551;28;20085;-77
2023/02/28 02:10:01;;;;;;;19.90;12.48;;;;;;;8.79;100.00;99672.53;5016746;28;20626;-78
2023/02/28 02:12:43;;;;;;;20.77;12.98;;;;;;;8.64;100.00;99668.66;5016332;28;20448;-78
2023/02/28 02:15:35;;;;;;;21.90;11.77;;;;;;;8.56;100.00;99654.53;5034018;28;20554;-77
2023/02/28 02:18:41;;;;;;;21.27;13.45;;;;;;;8.60;100.00;99596.13;5012582;28;20095;-77
2023/02/28 02:21:28;;;;;;;20.80;12.40;;;;;;;8.50;100.00;99561.78;5011473;28;20038;-78
2023/02/28 02:24:14;;;;;;;20.48;12.95;;;;;;;8.50;100.00;99563.47;5034311;28;20061;-79
2023/02/28 02:26:48;;;;;;;18.23;12.48;;;;;;;8.41;100.00;99568.81;5034093;28;20044;-80
2023/02/28 02:29:16;;;;;;;18.90;12.07;;;;;;;8.45;100.00;99565.31;5034881;28;20034;-78
2023/02/28 02:32:28;;;;;;;17.85;12.50;;;;;;;8.13;100.00;99426.03;5034742;28;20056;-79
2023/02/28 02:35:12;;;;;;;20.05;12.88;;;;;;;8.37;100.00;99483.66;5033341;28;20026;-79
2023/02/28 02:37:52;;;;;;;19.95;13.45;;;;;;;8.37;100.00;99488.72;5034419;28;20033;-79
2023/02/28 02:40:25;;;;;;;22.77;13.27;;;;;;;8.18;100.00;99480.72;5034186;28;20047;-78
2023/02/28 02:43:00;;;;;;;17.80;12.20;;;;;;;8.11;100.00;99451.41;5034166;28;20032;-79
2023/02/28 02:46:01;;;;;;;22.05;13.18;;;;;;;8.39;100.00;99514.81;5016006;28;20095;-79
2023/02/28 02:48:30;;;;;;;19.52;13.07;;;;;;;8.28;100.00;99511.75;5033880;28;20033;-81
2023/02/28 02:51:00;;;;;;;24.05;13.50;;;;;;;8.33;100.00;99508.22;5033395;28;20033;-80
2023/02/28 02:53:37;;;;;;;19.75;13.15;;;;;;;8.35;100.00;99503.13;5015686;28;20516;-80
2023/02/28 02:56:05;;;;;;;21.23;13.52;;;;;;;8.12;100.00;99477.56;5033715;28;20034;-83
2023/02/28 02:58:42;;;;;;;24.52;14.15;;;;;;;8.08;100.00;99516.47;5016215;28;20041;-80
2023/02/28 03:01:12;;;;;;;21.98;14.15;;;;;;;8.01;100.00;99545.31;5032668;28;20025;-79
2023/02/28 03:03:38;;;;;;;25.85;15.05;;;;;;;8.25;100.00;99619.00;5033402;28;20029;-78
2023/02/28 03:06:05;;;;;;;22.33;14.27;;;;;;;8.01;100.00;99604.38;5033928;28;20022;-78
2023/02/28 03:08:37;;;;;;;23.45;15.38;;;;;;;8.29;100.00;99632.41;5033280;28;20052;-80
2023/02/28 03:11:07;;;;;;;26.88;15.93;;;;;;;7.92;100.00;99618.94;5053548;28;20499;-81
2023/02/28 03:13:54;;;;;;;24.33;15.45;;;;;;;7.88;100.00;99628.31;5035637;28;20064;-79
2023/02/28 03:16:33;;;;;;;25.02;16.17;;;;;;;7.96;100.00;99664.41;5054381;28;20101;-78
2023/02/28 03:19:05;;;;;;;25.15;16.05;;;;;;;8.19;100.00;99757.53;5073221;28;20032;-78
2023/02/28 03:22:12;;;;;;;23.95;15.90;;;;;;;8.24;100.00;99784.41;5061287;28;20064;-79
2023/02/28 03:25:15;;;;;;;21.67;15.65;;;;;;;8.38;100.00;99815.38;5023818;28;20036;-81
2023/02/28 03:28:01;;;;;;;25.92;16.83;;;;;;;8.31;100.00;99843.38;5028273;28;20123;-80
2023/02/28 03:30:36;;;;;;;25.83;16.70;;;;;;;7.66;100.00;99786.47;5055156;28;20036;-79
2023/02/28 03:33:12;;;;;;;27.17;17.33;;;;;;;7.98;100.00;99870.19;5054354;28;20032;-80
2023/02/28 03:35:44;;;;;;;26.70;16.98;;;;;;;8.04;100.00;99892.88;5072740;28;20024;-80
2023/02/28 03:38:29;;;;;;;24.42;16.90;;;;;;;8.23;100.00;99981.94;5055394;28;20024;-79
2023/02/28 03:41:06;;;;;;;25.00;16.20;;;;;;;7.97;100.00;99958.78;5073145;28;20388;-79
2023/02/28 03:43:35;;;;;;;24.77;15.98;;;;;;;7.90;100.00;100003.66;5077185;28;20476;-79
2023/02/28 03:46:08;;;;;;;28.02;18.23;;;;;;;8.25;100.00;100099.28;5064900;28;20051;-80
2023/02/28 03:48:42;;;;;;;28.83;19.15;;;;;;;7.93;100.00;100093.84;5072517;28;20047;-79
2023/02/28 03:51:12;;;;;;;30.02;19.90;;;;;;;8.15;100.00;100171.16;5072220;28;20028;-80
2023/02/28 03:53:42;;;;;;;30.95;20.25;;;;;;;8.17;100.00;100235.25;5072299;28;20124;-80
2023/02/28 03:56:21;;;;;;;31.75;20.25;;;;;;;7.91;100.00;100215.38;5072954;28;20029;-79
2023/02/28 03:59:38;;;;;;;34.40;20.38;;;;;;;8.27;100.00;100298.47;5072503;28;20081;-79
2023/02/28 04:02:03;;;;;;;28.92;19.35;;;;;;;7.50;100.00;100240.34;5010221;28;20671;-78
2023/02/28 04:04:29;;;;;;;29.50;19.98;;;;;;;7.99;100.00;100312.28;5073228;28;20039;-74
2023/02/28 04:07:02;;;;;;;32.72;19.50;;;;;;;7.92;100.00;100360.47;5054812;28;20637;-78
2023/02/28 04:09:28;;;;;;;29.80;20.30;;;;;;;7.98;100.00;100413.56;5071924;28;20101;-78
2023/02/28 04:11:55;;;;;;;29.67;19.02;;;;;;;8.04;100.00;100472.59;5054680;28;20433;-77
2023/02/28 04:14:21;;;;;;;25.15;18.20;;;;;;;7.87;100.00;100487.91;5072269;28;20032;-75
2023/02/28 04:16:47;;;;;;;27.08;18.35;;;;;;;7.75;100.00;100490.56;5071608;28;20039;-79
2023/02/28 04:19:14;;;;;;;26.23;19.15;;;;;;;8.10;100.00;100548.47;5070867;28;20040;-79
2023/02/28 04:21:43;;;;;;;28.60;19.45;;;;;;;7.71;100.00;100574.09;5072664;28;20059;-79
2023/02/28 04:24:14;;;;;;;26.33;17.40;;;;;;;7.90;100.00;100664.25;4702606;28;10001095;-78
2023/02/28 04:26:43;;;;;;;27.45;18.60;;;;;;;7.69;100.00;100661.81;5077129;28;20055;-76
2023/02/28 04:29:10;;;;;;;30.35;19.02;;;;;;;7.89;100.00;100698.00;5052346;28;20037;-76
2023/02/28 04:31:35;;;;;;;29.77;18.98;;;;;;;7.89;100.00;100698.84;5051155;28;20032;-76
2023/02/28 04:34:01;;;;;;;29.52;19.23;;;;;;;7.48;100.00;100647.59;5068700;28;20029;-74
2023/02/28 04:36:27;;;;;;;30.33;19.52;;;;;;;7.76;100.00;100734.34;5068468;28;20068;-76
2023/02/28 04:38:53;;;;;;;32.08;20.67;;;;;;;7.70;100.00;100729.31;5066991;28;20067;-78
2023/02/28 04:41:19;;;;;;;30.60;21.02;;;;;;;7.42;100.00;100694.84;5052312;28;20027;-77
2023/02/28 04:43:44;;;;;;;30.92;20.33;;;;;;;7.43;100.00;100678.81;5060385;28;20033;-77
2023/02/28 04:46:11;;;;;;;30.05;19.35;;;;;;;7.71;100.00;100741.09;5056923;28;20036;-76
2023/02/28 04:48:38;;;;;;;30.20;19.02;;;;;;;7.64;100.00;100719.22;5058815;28;20056;-76
2023/02/28 04:51:10;;;;;;;29.98;18.88;;;;;;;7.38;100.00;100656.09;5059343;28;20116;-77
2023/02/28 04:53:37;;;;;;;25.30;17.90;;;;;;;7.70;100.00;100706.53;5058316;28;20025;-77
2023/02/28 04:56:03;;;;;;;27.40;18.55;;;;;;;7.25;100.00;100613.16;5060890;28;20123;-75
2023/02/28 04:58:29;;;;;;;26.45;17.63;;;;;;;7.68;100.00;100643.28;5060333;28;20116;-79
2023/02/28 05:01:12;;;;;;;24.70;17.23;;;;;;;7.66;100.00;100644.13;5058961;28;20021;-76
2023/02/28 05:03:41;;;;;;;25.48;16.92;;;;;;;7.66;100.00;100647.53;5048538;28;20044;-79
2023/02/28 05:06:08;;;;;;;23.58;17.38;;;;;;;7.67;100.00;100654.25;5042484;28;20048;-78
2023/02/28 05:08:34;;;;;;;25.55;17.58;;;;;;;7.67;100.00;100650.88;5066701;28;20048;-78
2023/02/28 05:11:00;;;;;;;24.70;18.15;;;;;;;7.26;100.00;100595.44;5050888;28;20036;-78
2023/02/28 05:13:27;;;;;;;24.00;16.92;;;;;;;7.74;100.00;100643.22;5068175;28;20052;-77
2023/02/28 05:15:53;;;;;;;25.50;17.13;;;;;;;7.56;100.00;100639.97;5069893;28;20084;-76
2023/02/28 05:18:19;;;;;;;23.77;17.13;;;;;;;7.72;100.00;100651.69;5068197;28;20127;-76
2023/02/28 05:20:44;;;;;;;22.85;16.05;;;;;;;7.30;100.00;100587.00;5050160;28;20136;-78
2023/02/28 05:23:15;;;;;;;24.38;17.17;;;;;;;7.34;100.00;100595.41;5050604;28;20473;-76
2023/02/28 05:25:40;;;;;;;23.27;16.60;;;;;;;7.37;100.00;100577.69;5066501;28;20036;-79
2023/02/28 05:28:06;;;;;;;23.83;17.08;;;;;;;7.82;100.00;100653.31;5050377;28;20411;-78
2023/02/28 05:30:32;;;;;;;22.77;17.02;;;;;;;7.85;100.00;100643.16;5050800;28;20029;-78
2023/02/28 05:32:58;;;;;;;20.80;15.45;;;;;;;8.00;100.00;100647.31;5068778;28;20063;-77
2023/02/28 05:35:30;;;;;;;21.45;15.50;;;;;;;7.82;100.00;100646.56;5069531;28;20108;-80
2023/02/28 05:37:55;;;;;;;21.45;16.05;;;;;;;7.87;100.00;100629.66;5048074;28;20123;-75
2023/02/28 05:40:20;;;;;;;23.42;17.13;;;;;;;7.58;100.00;100601.19;5068003;28;20132;-77
2023/02/28 05:42:46;;;;;;;24.70;16.60;;;;;;;7.69;100.00;100614.59;5050572;28;20384;-77
2023/02/28 05:45:12;;;;;;;24.02;16.63;;;;;;;7.78;100.00;100598.53;5055140;28;20158;-77
2023/02/28 05:47:38;;;;;;;23.17;16.98;;;;;;;7.72;100.00;100565.66;5040105;28;20029;-71
2023/02/28 05:50:05;;;;;;;23.15;18.10;;;;;;;9.09;100.00;100670.00;5052753;28;20040;-72
2023/02/28 05:52:30;;;;;;;22.88;17.30;;;;;;;7.88;100.00;100635.56;5035292;28;20110;-74
2023/02/28 05:54:56;;;;;;;24.75;18.00;;;;;;;8.07;100.00;100708.00;5036203;28;20484;-76
2023/02/28 05:57:22;;;;;;;23.10;17.52;;;;;;;7.94;100.00;100716.53;5053121;28;20037;-75
2023/02/28 05:59:49;;;;;;;23.40;17.45;;;;;;;8.10;100.00;100707.16;5036391;28;20089;-77
2023/02/28 06:02:19;;;;;;;24.65;18.15;;;;;;;7.83;100.00;100640.66;5046563;28;20514;-76
2023/02/28 06:04:49;;;;;;;24.85;17.92;;;;;;;8.02;100.00;100702.16;5074765;28;20523;-76
2023/02/28 06:07:14;;;;;;;28.77;18.15;;;;;;;7.89;100.00;100690.41;5056336;28;20049;-75
2023/02/28 06:09:40;;;;;;;23.00;17.10;;;;;;;7.87;100.00;100692.09;5056329;28;20037;-76
2023/02/28 06:12:09;;;;;;;21.77;17.15;;;;;;;7.58;100.00;100646.72;5056569;28;20059;-76
2023/02/28 06:14:34;;;;;;;23.50;17.55;;;;;;;7.93;100.00;100697.13;5074290;28;20021;-76
2023/02/28 06:17:00;;;;;;;24.42;17.42;;;;;;;7.49;100.00;100630.72;5073808;28;20111;-75
2023/02/28 06:19:27;;;;;;;21.80;18.10;;;;;;;7.79;100.00;100676.09;5074391;28;20047;-75
2023/02/28 06:21:59;;;;;;;29.08;18.02;;;;;;;7.92;100.00;100703.06;5074690;28;20025;-76
2023/02/28 06:24:30;;;;;;;30.05;18.73;;;;;;;7.93;100.00;100694.59;5056370;28;20029;-75
2023/02/28 06:26:55;;;;;;;26.65;18.27;;;;;;;7.61;100.00;100646.69;5054664;28;20099;-76
2023/02/28 06:29:21;;;;;;;27.50;19.27;;;;;;;7.86;100.00;100695.50;5074235;28;20039;-75
2023/02/28 06:31:47;;;;;;;29.25;19.45;;;;;;;7.43;100.00;100638.34;5056476;28;20029;-76
2023/02/28 06:34:20;;;;;;;27.20;18.63;;;;;;;7.48;100.00;100646.75;5074915;28;20035;-76
2023/02/28 06:36:45;;;;;;;24.90;17.98;;;;;;;7.37;100.00;100634.16;5056440;28;20594;-76
2023/02/28 06:39:10;;;;;;;26.52;18.30;;;;;;;7.80;100.00;100703.13;5055932;28;20034;-76
2023/02/28 06:41:37;;;;;;;24.27;17.50;;;;;;;7.86;100.00;100695.50;5073656;28;20040;-76
2023/02/28 06:44:05;;;;;;;22.88;17.05;;;;;;;7.59;100.00;100650.91;5074304;28;20050;-77
2023/02/28 06:46:31;;;;;;;23.27;16.48;;;;;;;7.71;100.00;100643.25;5074165;28;20034;-77
2023/02/28 06:48:57;;;;;;;22.92;17.58;;;;;;;7.74;100.00;100655.88;5074062;28;20033;-77
2023/02/28 06:51:24;;;;;;;24.60;17.98;;;;;;;7.72;100.00;100633.97;5055972;28;20036;-76
2023/02/28 06:53:50;;;;;;;24.88;17.88;;;;;;;8.12;100.00;100691.09;5074184;28;20032;-76
2023/02/28 06:56:17;;;;;;;27.83;19.10;;;;;;;7.76;100.00;100628.06;5072251;28;20039;-77
2023/02/28 06:58:46;;;;;;;26.92;18.88;;;;;;;7.89;100.00;100687.88;5073714;28;20024;-77
2023/02/28 07:01:13;;;;;;;27.08;19.17;;;;;;;7.65;100.00;100644.97;5073964;28;20131;-77
2023/02/28 07:03:40;;;;;;;28.83;20.13;;;;;;;7.94;100.00;100639.75;5073820;28;20036;-77
2023/02/28 07:06:06;;;;;;;28.10;20.05;;;;;;;8.18;100.00;100697.81;5056941;28;20395;-76
2023/02/28 07:08:33;;;;;;;28.20;19.67;;;;;;;8.20;100.00;100704.53;5089441;28;20052;-77
2023/02/28 07:10:58;;;;;;;28.10;19.27;;;;;;;8.04;100.00;100699.59;5093630;28;20040;-77
2023/02/28 07:13:24;;;;;;;27.30;20.15;;;;;;;8.06;100.00;100696.19;5093578;28;20036;-76
2023/02/28 07:15:54;;;;;;;29.42;20.40;;;;;;;8.01;100.00;100702.97;5075815;28;20032;-77
2023/02/28 07:18:20;;;;;;;29.60;20.98;;;;;;;7.93;100.00;100649.03;5075700;28;20032;-77
2023/02/28 07:20:45;;;;;;;31.10;21.55;;;;;;;8.30;100.00;100716.31;5075530;28;20147;-78
2023/02/28 07:23:11;;;;;;;32.30;21.00;;;;;;;7.92;100.00;100665.09;5092945;28;20043;-78
2023/02/28 07:25:36;;;;;;;29.48;19.65;;;;;;;7.86;100.00;100642.34;5075377;28;20119;-78
2023/02/28 07:28:01;;;;;;;26.02;18.63;;;;;;;8.13;100.00;100722.31;5075459;28;20543;-77
2023/02/28 07:30:27;;;;;;;24.83;17.05;;;;;;;8.26;100.00;100724.78;5093036;28;20074;-78
2023/02/28 07:32:54;;;;;;;26.40;19.17;;;;;;;8.23;100.00;100696.94;5075373;28;20058;-77
2023/02/28 07:35:19;;;;;;;23.52;16.85;;;;;;;8.15;100.00;100725.69;5075610;28;20093;-78
2023/02/28 07:37:46;;;;;;;24.17;17.10;;;;;;;7.82;100.00;100630.56;5092764;28;20032;-77
2023/02/28 07:40:12;;;;;;;22.77;16.83;;;;;;;8.39;100.00;100730.63;5074997;28;20126;-77
2023/02/28 07:42:39;;;;;;;27.60;17.83;;;;;;;8.26;100.00;100712.13;5075053;28;20046;-77
2023/02/28 07:45:05;;;;;;;22.60;16.25;;;;;;;8.32;100.00;100736.59;5075147;28;20028;-77
2023/02/28 07:47:31;;;;;;;18.77;13.65;;;;;;;8.32;100.00;100722.22;5092495;28;20039;-76
2023/02/28 07:49:57;;;;;;;18.83;15.25;;;;;;;8.55;100.00;100732.19;5092619;28;20047;-75
2023/02/28 07:52:23;;;;;;;19.02;14.50;;;;;;;8.11;100.00;100673.38;5092592;28;20036;-77
2023/02/28 07:54:49;;;;;;;19.63;15.27;;;;;;;8.13;100.00;100686.88;5092163;28;20042;-76
2023/02/28 07:57:15;;;;;;;19.27;14.75;;;;;;;8.39;100.00;100743.28;5073773;28;20127;-77
2023/02/28 07:59:41;;;;;;;19.95;14.88;;;;;;;8.53;100.00;100744.88;5074163;28;20077;-77
2023/02/28 08:02:06;;;;;;;18.40;14.43;;;;;;;8.31;100.00;100707.88;5092275;28;20031;-76
2023/02/28 08:04:32;;;;;;;17.70;13.70;;;;;;;8.04;100.00;100656.56;5092741;28;20706;-77
2023/02/28 08:06:58;;;;;;;17.08;13.45;;;;;;;8.52;100.00;100762.63;5073544;28;20705;-77
2023/02/28 08:09:23;;;;;;;19.17;14.25;;;;;;;8.59;100.00;100777.78;5074622;28;20020;-77
2023/02/28 08:11:49;;;;;;;16.33;13.40;;;;;;;8.49;100.00;100783.78;5092400;28;20513;-77
2023/02/28 08:14:16;;;;;;;16.85;13.40;;;;;;;8.14;100.00;100749.34;5091793;28;20415;-76
2023/02/28 08:16:42;;;;;;;23.13;16.27;;;;;;;8.49;100.00;100782.91;5074224;28;20022;-77
2023/02/28 08:19:08;;;;;;;20.58;14.65;;;;;;;8.54;100.00;100798.91;5074344;28;20425;-77
2023/02/28 08:21:34;;;;;;;18.17;14.43;;;;;;;8.28;100.00;100745.06;5074680;28;20028;-77
2023/02/28 08:24:00;;;;;;;18.88;14.57;;;;;;;8.41;100.00;100804.94;5092027;28;20035;-77
2023/02/28 08:26:25;;;;;;;20.40;15.55;;;;;;;8.61;100.00;100803.97;5074169;28;20063;-77
2023/02/28 08:28:51;;;;;;;20.80;14.85;;;;;;;8.40;100.00;100799.00;5074216;28;20034;-77
2023/02/28 08:31:17;;;;;;;20.15;15.82;;;;;;;8.56;100.00;100800.59;5074210;28;20119;-77
2023/02/28 08:33:44;;;;;;;17.55;13.15;;;;;;;8.40;100.00;100809.16;5073446;28;20715;-76
2023/02/28 08:36:11;;;;;;;22.75;14.73;;;;;;;8.54;100.00;100792.16;5074010;28;20558;-77
2023/02/28 08:38:37;;;;;;;15.93;12.30;;;;;;;8.52;100.00;100798.94;5074355;28;20545;-77
2023/02/28 08:41:07;;;;;;;16.40;11.88;;;;;;;8.55;100.00;100819.22;5074196;28;20028;-76
2023/02/28 08:43:33;;;;;;;17.27;13.00;;;;;;;8.61;100.00;100818.31;5091610;28;20024;-76
2023/02/28 08:45:59;;;;;;;16.10;11.43;;;;;;;8.51;100.00;100830.22;5067038;28;20028;-75
2023/02/28 08:48:29;;;;;;;15.02;11.05;;;;;;;8.49;100.00;100828.53;5070529;28;20029;-77
2023/02/28 08:50:57;;;;;;;14.93;11.23;;;;;;;8.70;100.00;100825.84;5070939;28;20028;-77
2023/02/28 08:53:22;;;;;;;16.98;11.23;;;;;;;8.44;100.00;100770.28;5071830;28;20032;-77
2023/02/28 08:56:08;;;;;;;16.60;12.73;;;;;;;8.60;100.00;100766.78;5071714;28;20536;-79
2023/02/28 08:58:34;;;;;;;16.52;12.50;;;;;;;8.55;100.00;100762.63;5067883;28;20036;-79
2023/02/28 09:01:00;;;;;;;17.58;12.75;;;;;;;8.86;100.00;100812.22;5071384;28;20094;-79
2023/02/28 09:03:26;;;;;;;18.52;13.57;;;;;;;8.85;100.00;100845.19;5071387;28;20036;-79
2023/02/28 09:05:54;;;;;;;19.05;13.95;;;;;;;8.52;100.00;100753.31;5071472;28;20032;-79
2023/02/28 09:08:20;;;;;;;20.08;13.20;;;;;;;8.85;100.00;100845.19;5071353;28;20052;-78
2023/02/28 09:10:45;;;;;;;17.35;13.05;;;;;;;8.56;100.00;100797.22;5070975;28;20044;-78
2023/02/28 09:13:10;;;;;;;21.27;13.55;;;;;;;8.99;100.00;100845.94;5052831;28;20055;-79
2023/02/28 09:15:38;;;;;;;16.67;12.98;;;;;;;8.86;100.00;100798.69;5071523;28;20025;-78
2023/02/28 09:18:03;;;;;;;18.08;12.50;;;;;;;9.16;100.00;100861.84;5071419;28;20031;-79
2023/02/28 09:20:29;;;;;;;15.20;11.55;;;;;;;8.90;100.00;100873.88;5057568;28;20115;-79
2023/02/28 09:22:56;;;;;;;16.27;12.48;;;;;;;8.77;100.00;100813.97;5075230;28;20625;-80
2023/02/28 09:25:21;;;;;;;17.73;12.93;;;;;;;8.95;100.00;100813.84;5075051;28;20024;-79
2023/02/28 09:27:47;;;;;;;15.80;11.80;;;;;;;8.86;100.00;100834.19;5074861;28;20123;-79
2023/02/28 09:30:13;;;;;;;17.23;12.15;;;;;;;8.90;100.00;100843.44;5056752;28;20553;-78
2023/02/28 09:32:38;;;;;;;15.57;11.88;;;;;;;9.13;100.00;100900.75;5056837;28;20032;-78
2023/02/28 09:35:04;;;;;;;15.25;11.40;;;;;;;8.89;100.00;100850.25;5056654;28;20086;-77
2023/02/28 09:37:31;;;;;;;15.45;11.48;;;;;;;9.22;100.00;100892.25;5074529;28;20020;-78
2023/02/28 09:39:56;;;;;;;14.45;10.48;;;;;;;8.98;100.00;100847.63;5057298;28;20219;-79
2023/02/28 09:42:30;;;;;;;13.82;10.70;;;;;;;9.56;100.00;100886.91;5057055;28;20099;-78
2023/02/28 09:44:57;;;;;;;13.82;10.40;;;;;;;9.52;100.00;100884.38;5074681;28;20024;-77
2023/02/28 09:47:22;;;;;;;15.48;10.88;;;;;;;9.54;100.00;100903.00;5075118;28;20025;-77
2023/02/28 09:49:48;;;;;;;16.17;12.25;;;;;;;9.09;100.00;100800.19;5075080;28;20031;-76
2023/02/28 09:52:19;;;;;;;16.85;13.23;;;;;;;9.19;100.00;100859.31;5074286;28;20024;-78
2023/02/28 09:54:44;;;;;;;16.13;12.88;;;;;;;9.50;100.00;100907.25;5074277;28;20043;-77
2023/02/28 09:57:27;;;;;;;15.95;11.18;;;;;;;9.40;100.00;100899.72;5074734;28;20032;-77
2023/02/28 10:00:12;;;;;;;16.08;11.88;;;;;;;9.42;100.00;100908.16;5056577;28;20032;-77
2023/02/28 10:03:15;;;;;;;17.65;11.90;;;;;;;9.43;100.00;100900.53;5074431;28;20384;-77
2023/02/28 10:05:54;;;;;;;16.75;13.32;;;;;;;9.56;100.00;100896.19;5056608;28;20033;-77
2023/02/28 10:08:27;;;;;;;20.58;14.20;;;;;;;9.27;100.00;100838.06;5074057;28;20232;-77
2023/02/28 10:11:16;;;;;;;20.35;13.40;;;;;;;9.15;100.00;100843.25;5055784;28;20529;-78
2023/02/28 10:13:55;;;;;;;19.95;13.30;;;;;;;9.39;100.00;100843.03;5070198;28;20526;-78
2023/02/28 10:16:56;;;;;;;18.30;13.38;;;;;;;9.59;100.00;100863.16;5056055;28;20035;-76
2023/02/28 10:19:56;;;;;;;18.05;12.57;;;;;;;9.50;100.00;100888.63;5054348;28;20514;-77
2023/02/28 10:22:27;;;;;;;20.48;14.13;;;;;;;9.43;100.00;100899.69;5056165;28;20020;-77
2023/02/28 10:25:02;;;;;;;18.33;13.20;;;;;;;9.28;100.00;100841.47;5056038;28;20024;-76
2023/02/28 10:27:30;;;;;;;23.05;14.90;;;;;;;9.80;100.00;100897.66;5056431;28;20415;-75
2023/02/28 10:30:01;;;;;;;17.73;12.90;;;;;;;9.54;100.00;100832.75;5055299;28;20032;-77
2023/02/28 10:32:33;;;;;;;17.13;12.67;;;;;;;9.70;100.00;100858.84;5075514;28;20486;-78
2023/02/28 10:35:23;;;;;;;18.55;13.77;;;;;;;9.66;100.00;100821.63;5064697;28;20050;-73
2023/02/28 10:38:00;;;;;;;15.40;13.30;;;;;;;9.66;100.00;100869.03;5055495;28;20028;-76
2023/02/28 10:40:37;;;;;;;16.77;12.93;;;;;;;9.49;100.00;100815.88;5078564;28;20119;-77
2023/02/28 10:43:19;;;;;;;16.65;12.63;;;;;;;9.79;100.00;100827.41;5075048;28;20025;-78
2023/02/28 10:46:09;;;;;;;17.00;12.02;;;;;;;9.95;100.00;100852.63;5052366;28;20032;-76
2023/02/28 10:48:42;;;;;;;16.10;12.15;;;;;;;9.77;100.00;100841.81;5055274;28;20079;-74
2023/02/28 10:51:13;;;;;;;16.63;12.75;;;;;;;9.78;100.00;100849.44;5055682;28;20409;-78
2023/02/28 10:53:48;;;;;;;15.98;12.73;;;;;;;9.70;100.00;100853.75;5055165;28;20028;-78
2023/02/28 10:56:24;;;;;;;17.15;12.57;;;;;;;9.47;100.00;100863.28;5054012;28;20115;-76
2023/02/28 10:59:01;;;;;;;17.55;12.93;;;;;;;9.60;100.00;100872.47;5072774;28;20033;-79
2023/02/28 11:01:29;;;;;;;16.25;12.65;;;;;;;9.52;100.00;100876.78;5071856;28;20028;-82
2023/02/28 11:03:57;;;;;;;17.15;14.00;;;;;;;9.34;100.00;100854.94;5055106;28;20449;-79
2023/02/28 11:06:25;;;;;;;17.95;14.13;;;;;;;9.47;100.00;100886.97;5054829;28;20036;-77
2023/02/28 11:09:14;;;;;;;19.55;14.90;;;;;;;9.41;100.00;100881.09;5073371;28;20049;-79
2023/02/28 11:11:46;;;;;;;21.27;16.00;;;;;;;9.08;100.00;100825.56;5047427;28;20080;-78
2023/02/28 11:14:48;;;;;;;22.85;16.88;;;;;;;9.59;100.00;100886.84;5073218;28;20029;-76
2023/02/28 11:17:21;;;;;;;21.58;16.50;;;;;;;9.24;100.00;100827.13;5045468;28;20135;-77
2023/02/28 11:19:51;;;;;;;23.50;17.15;;;;;;;9.22;100.00;100856.72;5073531;28;20029;-79
2023/02/28 11:22:24;;;;;;;21.90;15.95;;;;;;;9.05;100.00;100863.66;5055177;28;20029;-77
2023/02/28 11:24:56;;;;;;;28.00;18.27;;;;;;;9.30;100.00;100903.19;5073054;28;20032;-77
2023/02/28 11:27:31;;;;;;;21.52;17.55;;;;;;;9.13;100.00;100859.38;5073419;28;20514;-77